Tiempo atmosférico en la estación meteorológica de Mollerussa, Lleida (250 m.)



Fecha
DESCASC
Temp. máxima en grados centígrados (hora)
DESCASC
Temp. mínima en grados centígrados (hora)
DESCASC
Temp. media en grados centígrados
DESCASC
Racha de viento máxima en m/sg (hora)
DESCASC
Velocidad máxima media en intervalos de 10 minutos(hora)
DESCASC
Precipitaciones diarias en mm
DESCASC
Precipitaciones de 00:00 a 06:00 en mm
DESCASC
Precipitaciones de 06:00 a 12:00 en mm
DESCASC
Precipitaciones de 12:00 a 18:00 en mm
DESCASC
Precipitaciones de 18:00 a 24:00 en mm
DESCASC
16-06-2019 29.6 (16:20) 12.6 (06:30) 21.1 7.78 (20:50) 4.44 (00:40) 0 0 0 0 0
15-06-2019 28.3 (17:40) 15.1 (07:10) 21.7 8.33 (09:40) 4.72 (09:50) 0 0 0 0 0
14-06-2019 28.9 (18:50) 15.3 (06:50) 22.1 9.44 (13:50) 5.28 (13:40) 0 0 0 0 0
13-06-2019 26.6 (16:00) 9.2 (00:00) 17.9 11.67 (17:50) 6.67 (18:20) 0 0 0 0 0
12-06-2019 23.7 (19:20) 7.4 (00:00) 15.6 7.5 (22:20) 5 (22:30) 0 0 0 0 0
11-06-2019 17.3 (00:00) 11.4 (00:00) 14.3 7.22 (01:10) 4.17 (01:00) 4.4 2 1.8 0.6 0
10-06-2019 26.9 (17:20) 14.2 (00:00) 20.5 8.89 (13:30) 5 (07:50) 0 0 0 0 0
09-06-2019 29 (19:40) 15.5 (00:00) 22.3 7.5 (21:50) 4.72 (21:50) 0 0 0 0 0
08-06-2019 27.5 (16:30) 10.3 (00:00) 18.9 10.83 (20:30) 6.39 (19:50) 0 0 0 0 0
07-06-2019 25.3 (17:20) 13.1 (00:00) 19.2 10.83 (11:00) 5 (10:50) 0 0 0 0 0
06-06-2019 24.1 (16:00) 9.6 (00:00) 16.9 11.94 (15:10) 7.5 (15:10) 0 0 0 0 0
05-06-2019 22.2 (17:20) 14.5 (00:00) 18.4 13.89 (20:00) 7.78 (19:50) 0 0 0 0 0
04-06-2019 30.3 (16:20) 13.6 (00:00) 21.9 12.78 (18:40) 7.78 (18:50) 0 0 0 0 0
03-06-2019 31.3 (15:50) 13 (00:00) 22.1 8.89 (18:40) 5.83 (16:50) 0 0 0 0 0
02-06-2019 32.1 (16:10) 12.5 (00:00) 22.3 9.72 (19:20) 6.11 (19:20) 0 0 0 0 0
01-06-2019 31.6 (17:30) 12.2 (00:00) 21.9 7.78 (19:50) 5 (19:20) 0 0 0 0 0
31-05-2019 29.2 (17:10) 10.5 (00:00) 19.9 8.89 (19:20) 5.83 (19:20) 0 0 0 0 0
30-05-2019 28.5 (19:30) 9.4 (00:00) 18.9 7.78 (21:30) 5 (21:50) 0 0 0 0 0
29-05-2019 25.4 (17:50) 9 (00:00) 17.2 10 (14:00) 5.56 (14:00) 0 0 0 0 0
28-05-2019 24 (16:00) 11.5 (00:00) 17.8 12.5 (20:20) 7.5 (20:30) 0 0 0 0 0
27-05-2019 26 (18:30) 11.1 (00:00) 18.6 8.61 (12:20) 5 (12:50) 0 0 0 0 0
26-05-2019 25.1 (18:20) 10.7 (00:00) 17.9 8.89 (02:10) 5.28 (02:00) 0 0 0 0 0
25-05-2019 24.6 (19:10) 12.6 (00:00) 18.6 7.78 (23:50) 3.89 (09:00) 0.2 0.2 0 0 0
24-05-2019 19 (00:00) 14.4 (00:00) 16.7 6.39 (19:00) 3.61 (13:30) 36.4 3.6 15.2 17.4 0.2
23-05-2019 29 (15:30) 9.7 (00:00) 19.3 6.94 (19:20) 4.44 (19:20) 0 0 0 0 0
22-05-2019 27.1 (18:30) 9.4 (00:00) 18.3 7.22 (16:10) 4.17 (17:10) 0 0 0 0 0
21-05-2019 25.8 (19:00) 7.2 (06:50) 16.5 7.5 (21:30) 4.72 (21:30) 0 0 0 0 0

Gráficas

Temp. máximas Temp. mínimas Temp. medias Precipitaciones Rachas de viento máximas Velocidades máximas media en intervalos de 10 minutos

Datos horarios

Fecha y hora oficial Temperatura (ºC) Velocidad del viento (km/h) Dirección del viento Racha (km/h) Dirección de racha Precipitación (mm) Presión (hPa) Tendencia (hPa) Humedad (%)
2019-06-19 23:00:00 24.2 11 Sur 17 Sur 0 -- -- 57
2019-06-19 22:00:00 25.4 9 Sur 14 Sur 0 -- -- 56
2019-06-19 21:00:00 28.8 9 Sudeste 14 Sur 0 -- -- 45
2019-06-19 20:00:00 32.5 3 Noroeste 15 Noroeste 0 -- -- 33
2019-06-19 19:00:00 33.2 6 Noroeste 15 Norte 0 -- -- 30
2019-06-19 18:00:00 32.6 5 Noroeste 20 Noroeste 0 -- -- 31
2019-06-19 17:00:00 32.4 7 Noroeste 18 Oeste 0 -- -- 31
2019-06-19 16:00:00 31.5 8 Noroeste 23 Sudoeste -- -- -- 32
2019-06-19 15:00:00 31 7 Noroeste -- -- -- -- -- 36
2019-06-19 14:00:00 29.7 7 Noroeste 22 Oeste 0 -- -- 42
2019-06-19 13:00:00 28.3 5 Oeste 18 Oeste 0 -- -- 40
2019-06-19 12:00:00 26.3 7 Oeste -- -- -- -- -- 43
2019-06-19 11:00:00 -- -- -- -- -- -- -- -- --
2019-06-19 10:00:00 -- -- -- -- -- -- -- -- --
2019-06-19 09:00:00 -- -- -- -- -- -- -- -- --
2019-06-19 08:00:00 -- -- -- -- -- -- -- -- --
2019-06-19 07:00:00 -- -- -- -- -- -- -- -- --
2019-06-19 06:00:00 -- -- -- -- -- -- -- -- --
2019-06-19 05:00:00 -- -- -- -- -- -- -- -- --
2019-06-19 04:00:00 -- -- -- -- -- -- -- -- --
2019-06-19 03:00:00 -- -- -- -- -- -- -- -- --
2019-06-19 02:00:00 -- -- -- -- -- -- -- -- --
2019-06-19 01:00:00 -- -- -- -- -- -- -- -- --
2019-06-19 00:00:00 -- -- -- -- -- -- -- -- --
2019-06-18 23:00:00 -- -- -- -- -- -- -- -- --
2019-06-18 22:00:00 -- -- -- -- -- -- -- -- --
2019-06-18 21:00:00 -- -- -- -- -- -- -- -- --
2019-06-18 20:00:00 -- -- -- -- -- -- -- -- --
2019-06-18 19:00:00 28.9 18 Sudeste 35 Sudeste 0 -- -- 37
2019-06-18 18:00:00 29.4 21 Sudeste 36 Sudeste 0 -- -- 38
2019-06-18 17:00:00 30.8 19 Sudeste 36 Sudeste 0 -- -- 39
2019-06-18 16:00:00 31.7 24 Sudeste 41 Sur 0 -- -- 34
2019-06-18 15:00:00 32.4 14 Sudeste 27 Este 0 -- -- 29
2019-06-18 14:00:00 31.8 11 Sudeste 21 Sudeste 0 -- -- 35
2019-06-18 13:00:00 30.8 7 Este 17 Este 0 -- -- 36
2019-06-18 12:00:00 29.2 8 Nordeste 16 Nordeste 0 -- -- 32
2019-06-18 11:00:00 27.1 10 Nordeste 21 Este 0 -- -- 37
2019-06-18 10:00:00 23.9 6 Nordeste 15 Este 0 -- -- 46
2019-06-18 09:00:00 21.8 6 Este 9 Sudeste 0 -- -- 51
2019-06-18 08:00:00 16.8 0 Calma 5 Sur 0 -- -- 67
2019-06-18 07:00:00 15.5 3 Sur 7 Sudeste 0 -- -- 68
2019-06-18 06:00:00 15 4 Sudeste 9 Sudeste 0 -- -- 69
2019-06-18 05:00:00 15.5 4 Sudeste 6 Sur 0 -- -- 66
2019-06-18 04:00:00 16.1 2 Sudeste 5 Este 0 -- -- 62
2019-06-18 03:00:00 16.2 2 Este 7 Nordeste 0 -- -- 64
2019-06-18 02:00:00 17.4 6 Este 13 Sudeste 0 -- -- 57
2019-06-18 01:00:00 18.5 6 Sudeste 12 Sudeste 0 -- -- 53
2019-06-18 00:00:00 19.9 6 Sudeste 11 Sudeste 0 -- -- 53
2019-06-17 23:00:00 21.8 7 Este 17 Nordeste 0 -- -- 49
2019-06-17 22:00:00 22.4 8 Sur 27 Sur 0 -- -- 48
2019-06-17 21:00:00 24.5 14 Sudoeste 30 Sudeste 0 -- -- 49
2019-06-17 20:00:00 27.6 22 Sur 31 Sudeste 0 -- -- 45
2019-06-17 19:00:00 29.8 20 Sudeste 31 Sudeste 0 -- -- 43
2019-06-17 18:00:00 33.6 6 Sudoeste 18 Sudeste 0 -- -- 28
2019-06-17 17:00:00 33.3 5 Noroeste 14 Norte 0 -- -- 26
2019-06-17 16:00:00 32.6 6 Norte 10 Noroeste 0 -- -- 26
2019-06-17 15:00:00 31.4 5 Oeste 11 Oeste 0 -- -- 30
2019-06-17 14:00:00 30.2 5 Noroeste 14 Oeste 0 -- -- 36
2019-06-17 13:00:00 28.6 6 Oeste 13 Oeste 0 -- -- 38
2019-06-17 12:00:00 26.8 4 Oeste 13 Oeste 0 -- -- 38
2019-06-17 11:00:00 24.6 4 Oeste 12 Sudoeste 0 -- -- 45
2019-06-17 10:00:00 22.4 2 Oeste 7 Nordeste 0 -- -- 52
2019-06-17 09:00:00 19.9 3 Norte 6 Norte 0 -- -- 59
2019-06-17 08:00:00 16.5 3 Sudeste 8 Sur 0 -- -- 70
2019-06-17 07:00:00 13.4 5 Sudeste 8 Sudeste 0 -- -- 74
2019-06-17 06:00:00 13.2 5 Sur 7 Sur 0 -- -- 77
2019-06-17 05:00:00 13.6 4 Sur 5 Sur 0 -- -- 78
2019-06-17 04:00:00 14.1 2 Sudeste 5 Este 0 -- -- 78
2019-06-17 03:00:00 15.1 2 Noroeste 6 Norte 0 -- -- 76
2019-06-17 02:00:00 16.4 4 Sudeste 10 Sudeste 0 -- -- 69
2019-06-17 01:00:00 17.5 5 Sudeste 9 Sudeste 0 -- -- 67
2019-06-17 00:00:00 18.8 5 Sudeste 9 Nordeste 0 -- -- 60
2019-06-16 23:00:00 20.9 6 Sur 22 Sur 0 -- -- 52
2019-06-16 22:00:00 21.8 11 Sur 26 Sur 0 -- -- 53
2019-06-16 21:00:00 23.8 16 Sur 28 Sudeste 0 -- -- 50
2019-06-16 20:00:00 26.7 12 Sudeste 21 Sur 0 -- -- 46
2019-06-16 19:00:00 29.3 4 Norte 10 Noroeste 0 -- -- 30
2019-06-16 18:00:00 29.3 6 Norte 15 Norte 0 -- -- 31
2019-06-16 17:00:00 29.6 6 Norte 17 Norte 0 -- -- 30
2019-06-16 16:00:00 29.3 7 Noroeste 18 Oeste 0 -- -- 31
2019-06-16 15:00:00 28.4 8 Noroeste 18 Oeste 0 -- -- 38
2019-06-16 14:00:00 26.8 5 Noroeste 13 Oeste 0 -- -- 45
2019-06-16 13:00:00 25.3 6 Oeste 15 Oeste 0 -- -- 49
2019-06-16 12:00:00 23.5 4 Noroeste 12 Nordeste 0 -- -- 54
2019-06-16 11:00:00 21.8 5 Nordeste 10 Nordeste 0 -- -- 62
2019-06-16 10:00:00 20.5 5 Noroeste 10 Norte 0 -- -- 67
2019-06-16 09:00:00 18.5 2 Este 7 Este 0 -- -- 73
2019-06-16 08:00:00 15.4 3 Este 5 Sur 0 -- -- 84
2019-06-16 07:00:00 12.7 2 Sudeste 6 Sur 0 -- -- 91
2019-06-16 06:00:00 12.8 3 Sur 4 Sur 0 -- -- 89
2019-06-16 05:00:00 13.5 2 Norte 5 Nordeste 0 -- -- 89
2019-06-16 04:00:00 14.2 3 Sudeste 5 Sur 0 -- -- 84
2019-06-16 03:00:00 15.5 0 Calma 8 Nordeste 0 -- -- 82
2019-06-16 02:00:00 16.6 6 Norte 18 Sur 0 -- -- 78
2019-06-16 01:00:00 17.7 12 Sur 26 Sur 0 -- -- 74
2019-06-16 00:00:00 18.1 13 Sur 20 Sur 0 -- -- 74
2019-06-15 23:00:00 18.9 10 Sur 18 Sur 0 -- -- 63
2019-06-15 22:00:00 20.3 4 Oeste 9 Oeste 0 -- -- 44
2019-06-15 21:00:00 23.8 5 Oeste 19 Oeste 0 -- -- 34
2019-06-15 20:00:00 27 7 Noroeste 18 Oeste 0 -- -- 31
2019-06-15 19:00:00 28.1 10 Oeste 26 Oeste 0 -- -- 30
2019-06-15 18:00:00 28.2 8 Noroeste 27 Oeste 0 -- -- 32
2019-06-15 17:00:00 27.9 8 Oeste 22 Oeste 0 -- -- 32
2019-06-15 16:00:00 27.6 8 Noroeste 25 Oeste 0 -- -- 33
2019-06-15 15:00:00 26.6 8 Noroeste 26 Oeste 0 -- -- 39
2019-06-15 14:00:00 25.1 12 Oeste 27 Oeste 0 -- -- 47
2019-06-15 13:00:00 23.6 11 Oeste 29 Sudoeste 0 -- -- 53
2019-06-15 12:00:00 22.1 9 Oeste 23 Oeste 0 -- -- 57
2019-06-15 11:00:00 20.5 11 Oeste 27 Oeste 0 -- -- 61
2019-06-15 10:00:00 18.6 16 Oeste 30 Oeste 0 -- -- 68
2019-06-15 09:00:00 17 14 Oeste 26 Oeste 0 -- -- 72
2019-06-15 08:00:00 15.9 13 Oeste 23 Oeste 0 -- -- 75
2019-06-15 07:00:00 15.2 12 Oeste 23 Oeste 0 -- -- 79
2019-06-15 06:00:00 15.7 12 Oeste 24 Oeste 0 -- -- 78
2019-06-15 05:00:00 16.1 9 Oeste 15 Oeste 0 -- -- 78
2019-06-15 04:00:00 15.9 8 Oeste 13 Oeste 0 -- -- 77
2019-06-15 03:00:00 16.5 4 Sur 9 Sudeste 0 -- -- 74
2019-06-15 02:00:00 17.6 4 Sudeste 11 Este 0 -- -- 69
2019-06-15 01:00:00 18.3 5 Nordeste 18 Sur 0 -- -- 68
2019-06-15 00:00:00 19.5 12 Sudeste 23 Sudeste 0 -- -- 64
2019-06-14 23:00:00 20.3 15 Sur 25 Sudeste 0 -- -- 63
2019-06-14 22:00:00 21.5 15 Sur 25 Sudeste 0 -- -- 61
2019-06-14 21:00:00 24.5 12 Sudeste 22 Sur 0 -- -- 54
2019-06-14 20:00:00 28.4 3 Norte 10 Norte 0 -- -- 40
2019-06-14 19:00:00 28.9 3 Noroeste 15 Oeste 0 -- -- 38
2019-06-14 18:00:00 28.4 5 Noroeste 15 Oeste 0 -- -- 40
2019-06-14 17:00:00 27.1 6 Oeste 21 Oeste 0 -- -- 43
2019-06-14 16:00:00 26.1 11 Oeste 25 Oeste 0 -- -- 42
2019-06-14 15:00:00 23.1 8 Oeste 30 Oeste 0 -- -- 48
2019-06-14 14:00:00 24.5 19 Oeste 34 Oeste 0 -- -- 45
2019-06-14 13:00:00 23.8 15 Oeste 26 Oeste 0 -- -- 45
2019-06-14 12:00:00 22.2 11 Sudoeste 21 Sudoeste 0 -- -- 48
2019-06-14 11:00:00 21.3 6 Sudoeste 18 Oeste 0 -- -- 48
2019-06-14 10:00:00 18.8 6 Oeste 13 Sudoeste 0 -- -- 55
2019-06-14 09:00:00 17 6 Oeste 15 Sudoeste 0 -- -- 61
2019-06-14 08:00:00 15.6 5 Sudoeste 12 Oeste 0 -- -- 59
2019-06-14 07:00:00 15.3 2 Norte 20 Oeste 0 -- -- 62
2019-06-14 06:00:00 15.7 6 Sudoeste 19 Sudoeste 0 -- -- 59
2019-06-14 05:00:00 16.7 4 Sudeste 20 Este 0 -- -- 54
2019-06-14 04:00:00 17.2 10 Este 21 Este 0 -- -- 49
2019-06-14 03:00:00 17.8 4 Este 18 Este 0 -- -- 46
2019-06-14 02:00:00 16.4 8 Este 16 Este 0 -- -- 48
2019-06-14 01:00:00 15.8 4 Sudeste 16 Este 0 -- -- 51
2019-06-14 00:00:00 17.2 5 Este 17 Este 0 -- -- 46
2019-06-13 23:00:00 18.5 10 Este 19 Este 0 -- -- 46
2019-06-13 22:00:00 19.3 9 Este 23 Sudeste 0 -- -- 50
2019-06-13 21:00:00 21.3 13 Sudeste 24 Sudeste 0 -- -- 46
2019-06-13 20:00:00 22.9 15 Sudeste 27 Sur 0 -- -- 43
2019-06-13 19:00:00 23.5 19 Sur 37 Sudeste 0 -- -- 41
2019-06-13 18:00:00 22.7 23 Sudeste 42 Sudeste 0 -- -- 42
2019-06-13 17:00:00 24.9 19 Sudeste 36 Sudeste 0 -- -- 36
2019-06-13 16:00:00 26.6 19 Sudeste 32 Sudeste 0 -- -- 37
2019-06-13 15:00:00 25.8 14 Este 26 Este 0 -- -- 40
2019-06-13 14:00:00 25.2 7 Este 21 Sudeste 0 -- -- 44
2019-06-13 13:00:00 23.7 8 Sudeste 20 Sur 0 -- -- 45
2019-06-13 12:00:00 22.9 13 Sudeste 23 Sur 0 -- -- 50
2019-06-13 11:00:00 21.2 13 Sudeste 23 Sudeste 0 -- -- 53
2019-06-13 10:00:00 20.4 6 Este 21 Nordeste 0 -- -- 54
2019-06-13 09:00:00 17.4 9 Nordeste 22 Este 0 -- -- 59
2019-06-13 08:00:00 14.4 10 Sudeste 20 Este 0 -- -- 70
2019-06-13 07:00:00 11.7 7 Este 16 Este 0 -- -- 81
2019-06-13 06:00:00 10.1 6 Sudeste 14 Sudeste 0 -- -- 83
2019-06-13 05:00:00 9.4 6 Sudeste 12 Este 0 -- -- 75
2019-06-13 04:00:00 10.2 7 Sudeste 12 Sudeste 0 -- -- 77
2019-06-13 03:00:00 11.2 4 Sudeste 12 Este 0 -- -- 72
2019-06-13 02:00:00 12.1 0 Calma 8 Nordeste 0 -- -- 70
2019-06-13 01:00:00 13.2 3 Noroeste 12 Nordeste 0 -- -- 68
2019-06-13 00:00:00 15.1 6 Sur 26 Sudeste 0 -- -- 57
2019-06-12 23:00:00 15.7 16 Sur 27 Sur 0 -- -- 54
2019-06-12 22:00:00 16.8 14 Sudeste 27 Sudeste 0 -- -- 53
2019-06-12 21:00:00 19.5 12 Sur 24 Sur 0 -- -- 48
2019-06-12 20:00:00 23.3 0 Calma 9 Noroeste 0 -- -- 29
2019-06-12 19:00:00 23.5 4 Noroeste 12 Noroeste 0 -- -- 32
2019-06-12 18:00:00 23.1 6 Norte 16 Norte 0 -- -- 32
2019-06-12 17:00:00 22.8 6 Oeste 16 Noroeste 0 -- -- 30
2019-06-12 16:00:00 21.8 6 Oeste 20 Oeste 0 -- -- 35
2019-06-12 15:00:00 20.8 5 Norte 15 Oeste 0 -- -- 40
2019-06-12 14:00:00 20.3 6 Oeste 16 Oeste 0 -- -- 39
2019-06-12 13:00:00 19 6 Norte 15 Noroeste 0 -- -- 50
2019-06-12 12:00:00 17.5 4 Sudoeste 14 Oeste 0 -- -- 55
2019-06-12 11:00:00 15.4 5 Oeste 12 Oeste 0 -- -- 63
2019-06-12 10:00:00 13.7 5 Oeste 12 Oeste 0 -- -- 68
2019-06-12 09:00:00 11.4 9 Oeste 18 Oeste 0 -- -- 75
2019-06-12 08:00:00 9.5 6 Oeste 18 Oeste 0 -- -- 81
2019-06-12 07:00:00 7.9 10 Oeste 17 Sudoeste 0 -- -- 85
2019-06-12 06:00:00 7.9 5 Sudoeste 13 Sudoeste 0 -- -- 84
2019-06-12 05:00:00 8.5 3 Sudeste 13 Oeste 0 -- -- 80
2019-06-12 04:00:00 9.4 5 Oeste 13 Oeste 0 -- -- 77
2019-06-12 03:00:00 9.6 6 Sudoeste 13 Oeste 0 -- -- 77
2019-06-12 02:00:00 10.3 6 Sudoeste 14 Sudoeste 0 -- -- 73
2019-06-12 01:00:00 11.1 8 Sudoeste 15 Sudoeste 0 -- -- 69
2019-06-12 00:00:00 12 7 Sudoeste 17 Sudoeste 0 -- -- 66
2019-06-11 23:00:00 13.4 9 Sudoeste 18 Oeste 0 -- -- 63
2019-06-11 22:00:00 15.1 13 Oeste 26 Oeste 0 -- -- 58
2019-06-11 21:00:00 16.5 10 Oeste 21 Oeste 0 -- -- 56
2019-06-11 20:00:00 16.7 9 Sudeste 19 Sudeste 0 -- -- 67
2019-06-11 19:00:00 16.6 8 Sur 15 Oeste 0 -- -- 67
2019-06-11 18:00:00 16.9 8 Oeste 21 Oeste 0 -- -- 67
2019-06-11 17:00:00 15.3 8 Oeste 21 Oeste 0 -- -- 72
2019-06-11 16:00:00 15.5 10 Oeste 25 Oeste 0 -- -- 74
2019-06-11 15:00:00 14.7 12 Oeste 25 Oeste 0 -- -- 82
2019-06-11 14:00:00 12.4 13 Oeste 24 Oeste 0.2 -- -- 90
2019-06-11 13:00:00 12.1 10 Oeste 20 Oeste 0.4 -- -- 91
2019-06-11 12:00:00 12.1 9 Oeste 17 Oeste 0.6 -- -- 91
2019-06-11 11:00:00 11.8 8 Oeste 17 Oeste 0.2 -- -- 91
2019-06-11 10:00:00 11.4 10 Oeste 17 Oeste 0.8 -- -- 91
2019-06-11 09:00:00 11.7 10 Oeste 17 Oeste 0.2 -- -- 88
2019-06-11 08:00:00 11.8 8 Sudoeste 14 Sudoeste 0 -- -- 88
2019-06-11 07:00:00 11.9 7 Oeste 15 Oeste 0 -- -- 86
2019-06-11 06:00:00 12.1 9 Sudoeste 21 Sudoeste 0.2 -- -- 83
2019-06-11 05:00:00 12.2 9 Sudoeste 15 Sudoeste 1.2 -- -- 84
2019-06-11 04:00:00 13.8 8 Sudoeste 19 Oeste 0.6 -- -- 72
2019-06-11 03:00:00 15.6 12 Oeste 19 Oeste 0 -- -- 59
2019-06-11 02:00:00 16.3 11 Oeste 26 Oeste 0 -- -- 48
2019-06-11 01:00:00 17 15 Oeste 26 Oeste 0 -- -- 44
2019-06-11 00:00:00 17.3 9 Sudoeste 23 Oeste 0 -- -- 48
2019-06-10 23:00:00 18.7 14 Oeste 23 Noroeste 0 -- -- 43
2019-06-10 22:00:00 20.2 13 Oeste 27 Oeste 0 -- -- 38
2019-06-10 21:00:00 22.2 12 Oeste 28 Oeste 0 -- -- 38
2019-06-10 20:00:00 23.6 13 Oeste 25 Oeste 0 -- -- 35
2019-06-10 19:00:00 25.9 10 Noroeste 30 Oeste 0 -- -- 31
2019-06-10 18:00:00 26.2 12 Noroeste 31 Oeste 0 -- -- 36
2019-06-10 17:00:00 26.7 12 Oeste 29 Oeste 0 -- -- 38
2019-06-10 16:00:00 25.8 13 Oeste 29 Sudoeste 0 -- -- 44
2019-06-10 15:00:00 25 13 Oeste 31 Oeste 0 -- -- 44
2019-06-10 14:00:00 23.9 12 Oeste 32 Oeste 0 -- -- 49
2019-06-10 13:00:00 22 13 Oeste 27 Oeste 0 -- -- 52
2019-06-10 12:00:00 20.5 15 Oeste 31 Oeste 0 -- -- 54
2019-06-10 11:00:00 19.1 14 Oeste 30 Oeste 0 -- -- 60
2019-06-10 10:00:00 17.5 17 Oeste 28 Oeste 0 -- -- 63
2019-06-10 09:00:00 15 14 Sudoeste 29 Oeste 0 -- -- 72
2019-06-10 08:00:00 15.7 15 Oeste 29 Sudoeste 0 -- -- 69
2019-06-10 07:00:00 14.3 12 Sudoeste 25 Sudoeste 0 -- -- 76
2019-06-10 06:00:00 14.8 13 Sudoeste 26 Sudoeste 0 -- -- 74
2019-06-10 05:00:00 15.1 14 Sudoeste 24 Sudoeste 0 -- -- 74
2019-06-10 04:00:00 15.5 12 Sudoeste 25 Sudoeste 0 -- -- 64
2019-06-10 03:00:00 15.3 7 Sudoeste 15 Sudoeste 0 -- -- 53
2019-06-10 02:00:00 15.4 2 Sudoeste 14 Oeste 0 -- -- 61
2019-06-10 01:00:00 17.1 4 Oeste 6 Nordeste 0 -- -- 55
2019-06-10 00:00:00 17.5 0 Calma 12 Nordeste 0 -- -- 51
2019-06-09 23:00:00 19.1 5 Sudeste 16 Sur 0 -- -- 42
2019-06-09 22:00:00 20.4 15 Sur 27 Sur 0 -- -- 37
2019-06-09 21:00:00 23.2 11 Sur 22 Sur 0 -- -- 36
2019-06-09 20:00:00 28.2 3 Sudoeste 10 Sur 0 -- -- 32
2019-06-09 19:00:00 28 4 Sur 12 Sur 0 -- -- 31
2019-06-09 18:00:00 28.6 4 Oeste 12 Oeste 0 -- -- 31
2019-06-09 17:00:00 28.3 5 Oeste 12 Oeste 0 -- -- 30
2019-06-09 16:00:00 27.5 5 Noroeste 14 Norte 0 -- -- 34
2019-06-09 15:00:00 26.7 5 Noroeste 12 Norte 0 -- -- 32
2019-06-09 14:00:00 26.1 4 Norte 13 Norte 0 -- -- 33
2019-06-09 13:00:00 25.5 4 Nordeste 9 Nordeste 0 -- -- 32
2019-06-09 12:00:00 24.2 2 Noroeste 6 Nordeste 0 -- -- 37
2019-06-09 11:00:00 21.9 3 Nordeste 8 Noroeste 0 -- -- 45
2019-06-09 10:00:00 20.7 4 Noroeste 8 Noroeste 0 -- -- 49
2019-06-09 09:00:00 17.6 4 Este 11 Oeste 0 -- -- 54
2019-06-09 08:00:00 16.1 4 Sur 11 Sudeste 0 -- -- 59
2019-06-09 07:00:00 15.6 0 Calma 7 Sudoeste 0 -- -- 59
2019-06-09 06:00:00 16 2 Sur 16 Este 0 -- -- 56
2019-06-09 05:00:00 16.1 4 Norte 8 Nordeste 0 -- -- 52
2019-06-09 04:00:00 15.8 3 Norte 10 Este 0 -- -- 54
2019-06-09 03:00:00 16.3 3 Norte 11 Este 0 -- -- 54
2019-06-09 02:00:00 17 5 Este 19 Este 0 -- -- 50
2019-06-09 01:00:00 17.9 12 Este 19 Este 0 -- -- 49
2019-06-09 00:00:00 17.7 6 Este 13 Este 0 -- -- 50
2019-06-08 23:00:00 17.7 2 Noroeste 17 Sudeste 0 -- -- 54
2019-06-08 22:00:00 19 6 Sudeste 25 Sudeste 0 -- -- 44
2019-06-08 21:00:00 20.5 15 Sudeste 39 Sudeste 0 -- -- 44
2019-06-08 20:00:00 22 20 Sudeste 35 Sudeste 0 -- -- 42
2019-06-08 19:00:00 23.7 22 Sudeste 32 Sudeste 0 -- -- 42
2019-06-08 18:00:00 26.1 17 Sudeste 28 Sudeste 0 -- -- 38
2019-06-08 17:00:00 27.5 12 Sudeste 27 Sudeste 0 -- -- 40
2019-06-08 16:00:00 27.1 5 Nordeste 14 Noroeste 0 -- -- 35
2019-06-08 15:00:00 26.2 5 Noroeste 12 Noroeste 0 -- -- 33
2019-06-08 14:00:00 25.2 5 Noroeste 13 Este 0 -- -- 38
2019-06-08 13:00:00 23.7 4 Sur 12 Este 0 -- -- 35
2019-06-08 12:00:00 22.3 4 Oeste 11 Oeste 0 -- -- 43
2019-06-08 11:00:00 20.9 5 Norte 13 Norte 0 -- -- 48
2019-06-08 10:00:00 19 4 Norte 9 Norte 0 -- -- 51
2019-06-08 09:00:00 16.8 0 Calma 8 Sur 0 -- -- 53
2019-06-08 08:00:00 13.9 3 Nordeste 4 Norte 0 -- -- 60
2019-06-08 07:00:00 10.4 2 Norte 7 Norte 0 -- -- 68
2019-06-08 06:00:00 10.6 3 Sudoeste 5 Oeste 0 -- -- 66
2019-06-08 05:00:00 10.7 0 Calma 7 Sur 0 -- -- 66
2019-06-08 04:00:00 11.5 0 Calma 7 Este 0 -- -- 63
2019-06-08 03:00:00 13.3 3 Sur 9 Oeste 0 -- -- 55
2019-06-08 02:00:00 14 4 Sudeste 8 Sudoeste 0 -- -- 56
2019-06-08 01:00:00 15 3 Sur 9 Oeste 0 -- -- 50
2019-06-08 00:00:00 16.4 4 Sudoeste 12 Sudoeste 0 -- -- 46
2019-06-07 23:00:00 17.6 5 Sudoeste 10 Sudoeste 0 -- -- 40
2019-06-07 22:00:00 18.4 5 Sudoeste 11 Oeste 0 -- -- 39
2019-06-07 21:00:00 21.1 6 Oeste 21 Oeste 0 -- -- 35
2019-06-07 20:00:00 23.7 8 Noroeste 22 Oeste 0 -- -- 29
2019-06-07 19:00:00 24.6 11 Noroeste 31 Oeste 0 -- -- 28
2019-06-07 18:00:00 25 13 Noroeste 30 Oeste 0 -- -- 26
2019-06-07 17:00:00 25.2 12 Noroeste 30 Noroeste 0 -- -- 31
2019-06-07 16:00:00 24.8 14 Noroeste 36 Noroeste 0 -- -- 34
2019-06-07 15:00:00 24.2 13 Noroeste 37 Norte 0 -- -- 37
2019-06-07 14:00:00 23.3 14 Oeste 33 Oeste 0 -- -- 40
2019-06-07 13:00:00 22.2 12 Oeste 36 Oeste 0 -- -- 49
2019-06-07 12:00:00 21.2 12 Noroeste 33 Noroeste 0 -- -- 60
2019-06-07 11:00:00 20.7 14 Oeste 39 Noroeste 0 -- -- 64
2019-06-07 10:00:00 20.8 3 Nordeste 10 Nordeste 0 -- -- 62
2019-06-07 09:00:00 18.7 5 Este 12 Nordeste 0 -- -- 73
2019-06-07 08:00:00 15.6 3 Nordeste 9 Este 0 -- -- 83
2019-06-07 07:00:00 13.4 2 Nordeste 10 Sudeste 0 -- -- 89
2019-06-07 06:00:00 13.5 3 Sudeste 12 Este 0 -- -- 86
2019-06-07 05:00:00 13.7 6 Este 17 Este 0 -- -- 86
2019-06-07 04:00:00 14.2 10 Este 23 Este 0 -- -- 83
2019-06-07 03:00:00 14.4 8 Este 21 Este 0 -- -- 81
2019-06-07 02:00:00 14.8 9 Este 21 Este 0 -- -- 78
2019-06-07 01:00:00 15.7 7 Este 25 Este 0 -- -- 72
2019-06-07 00:00:00 16.8 11 Este 24 Este 0 -- -- 67
2019-06-06 23:00:00 16.8 6 Sudeste 23 Este 0 -- -- 69
2019-06-06 22:00:00 17.9 15 Sudeste 32 Sudeste 0 -- -- 64
2019-06-06 21:00:00 19.1 13 Este 26 Sudeste 0 -- -- 57
2019-06-06 20:00:00 21.2 15 Sudeste 33 Sudeste 0 -- -- 53
2019-06-06 19:00:00 22.8 18 Sur 34 Sur 0 -- -- 44
2019-06-06 18:00:00 22.6 19 Sudeste 35 Sudeste 0 -- -- 49
2019-06-06 17:00:00 22.9 17 Sudeste 41 Sur 0 -- -- 47
2019-06-06 16:00:00 24.1 22 Sur 43 Sur 0 -- -- 44
2019-06-06 15:00:00 23 23 Sur 40 Sur 0 -- -- 43
2019-06-06 14:00:00 23.6 8 Este 24 Sudeste 0 -- -- 44
2019-06-06 13:00:00 22.6 7 Nordeste 15 Nordeste 0 -- -- 44
2019-06-06 12:00:00 20.9 8 Norte 14 Norte 0 -- -- 47
2019-06-06 11:00:00 19.3 5 Norte 12 Norte 0 -- -- 51
2019-06-06 10:00:00 17.1 5 Nordeste 9 Nordeste 0 -- -- 58
2019-06-06 09:00:00 15.2 5 Oeste 10 Oeste 0 -- -- 61
2019-06-06 08:00:00 12.3 2 Sudoeste 8 Sudeste 0 -- -- 75
2019-06-06 07:00:00 9.7 3 Sur 5 Sudeste 0 -- -- 81
2019-06-06 06:00:00 10.5 2 Sudeste 5 Norte 0 -- -- 80
2019-06-06 05:00:00 11.2 0 Calma 5 Oeste 0 -- -- 75
2019-06-06 04:00:00 11.7 2 Oeste 13 Oeste 0 -- -- 67
2019-06-06 03:00:00 13.1 9 Oeste 18 Oeste 0 -- -- 61
2019-06-06 02:00:00 13.3 11 Oeste 27 Oeste 0 -- -- 62
2019-06-06 01:00:00 14 10 Oeste 26 Oeste 0 -- -- 59
2019-06-06 00:00:00 14.5 10 Sudoeste 23 Oeste 0 -- -- 58
2019-06-05 23:00:00 15.9 12 Oeste 27 Oeste 0 -- -- 54
2019-06-05 22:00:00 17.1 10 Oeste 37 Oeste 0 -- -- 50
2019-06-05 21:00:00 18.3 14 Oeste 44 Oeste 0 -- -- 50
2019-06-05 20:00:00 20.1 28 Oeste 50 Oeste 0 -- -- 45
2019-06-05 19:00:00 21.8 21 Oeste 40 Oeste 0 -- -- 44
2019-06-05 18:00:00 21.8 23 Oeste 42 Oeste 0 -- -- 43
2019-06-05 17:00:00 21.9 15 Noroeste 42 Oeste 0 -- -- 47
2019-06-05 16:00:00 21.2 15 Noroeste 33 Oeste 0 -- -- 52
2019-06-05 15:00:00 18.4 16 Oeste 32 Noroeste 0 -- -- 71
2019-06-05 14:00:00 21.6 15 Oeste 30 Oeste 0 -- -- 61
2019-06-05 13:00:00 18.7 12 Oeste 28 Oeste 0 -- -- 68
2019-06-05 12:00:00 17.6 12 Oeste 22 Oeste 0 -- -- 69
2019-06-05 11:00:00 16.3 12 Oeste 23 Sudoeste 0 -- -- 77
2019-06-05 10:00:00 19.1 12 Oeste 23 Oeste 0 -- -- 67
2019-06-05 09:00:00 18.3 6 Oeste 13 Oeste 0 -- -- 77
2019-06-05 08:00:00 17.5 4 Noroeste 16 Sudeste 0 -- -- 81
2019-06-05 07:00:00 16.9 10 Sur 22 Sudeste 0 -- -- 79
2019-06-05 06:00:00 16.3 13 Sudeste 21 Sudeste 0 -- -- 84
2019-06-05 05:00:00 16.2 9 Sudeste 21 Este 0 -- -- 82
2019-06-05 04:00:00 16.9 8 Sudeste 26 Sudeste 0 -- -- 79
2019-06-05 03:00:00 17.6 10 Sudeste 26 Sudeste 0 -- -- 74
2019-06-05 02:00:00 18.2 10 Este 24 Este 0 -- -- 63
2019-06-05 01:00:00 19.1 13 Este 29 Este 0 -- -- 57
2019-06-05 00:00:00 19.6 12 Este 24 Este 0 -- -- 57
2019-06-04 23:00:00 20.2 9 Este 22 Este 0 -- -- 56
2019-06-04 22:00:00 21.2 11 Este 26 Este 0 -- -- 48
2019-06-04 21:00:00 22.1 11 Este 30 Este 0 -- -- 43
2019-06-04 20:00:00 24 17 Sudeste 36 Sudeste 0 -- -- 42
2019-06-04 19:00:00 26.6 24 Sudeste 46 Sudeste 0 -- -- 38
2019-06-04 18:00:00 27.9 23 Sudeste 41 Sudeste 0 -- -- 40
2019-06-04 17:00:00 30 20 Sudeste 40 Sudeste 0 -- -- 38
2019-06-04 16:00:00 30.2 14 Sudeste 26 Este 0 -- -- 38
2019-06-04 15:00:00 29.8 15 Este 26 Este 0 -- -- 39
2019-06-04 14:00:00 29.4 8 Este 15 Este 0 -- -- 37
2019-06-04 13:00:00 28.6 6 Nordeste 13 Norte 0 -- -- 40
2019-06-04 12:00:00 26.9 6 Nordeste 13 Este 0 -- -- 40
2019-06-04 11:00:00 25.4 6 Sudoeste 15 Este 0 -- -- 43
2019-06-04 10:00:00 23.1 5 Sudeste 11 Este 0 -- -- 53
2019-06-04 09:00:00 20.3 5 Sudeste 8 Sudeste 0 -- -- 54
2019-06-04 08:00:00 16.9 3 Este 9 Este 0 -- -- 64
2019-06-04 07:00:00 13.6 2 Sudeste 10 Este 0 -- -- 73
2019-06-04 06:00:00 14.2 2 Este 9 Sudeste 0 -- -- 72
2019-06-04 05:00:00 14.4 4 Sudeste 10 Sudeste 0 -- -- 70
2019-06-04 04:00:00 14.8 0 Calma 11 Este 0 -- -- 70
2019-06-04 03:00:00 14.9 4 Sudeste 10 Sudeste 0 -- -- 68
2019-06-04 02:00:00 15.4 5 Sudeste 9 Sudeste 0 -- -- 66
2019-06-04 01:00:00 16.7 3 Sudeste 8 Este 0 -- -- 57
2019-06-04 00:00:00 18.4 4 Este 9 Sudeste 0 -- -- 52
2019-06-03 23:00:00 19.8 6 Este 24 Sur 0 -- -- 49
2019-06-03 22:00:00 21.2 14 Sudeste 29 Sudeste 0 -- -- 46
2019-06-03 21:00:00 23.3 14 Sudeste 29 Sudeste 0 -- -- 41
2019-06-03 20:00:00 26.2 17 Sur 29 Sudeste 0 -- -- 34
2019-06-03 19:00:00 28.9 15 Sudeste 32 Sudeste 0 -- -- 32
2019-06-03 18:00:00 29.1 16 Sudeste 31 Sudeste 0 -- -- 31
2019-06-03 17:00:00 30.4 18 Sudeste 31 Sudeste 0 -- -- 31
2019-06-03 16:00:00 31.2 15 Sudeste 27 Sudeste 0 -- -- 32
2019-06-03 15:00:00 30.9 8 Sur 19 Nordeste 0 -- -- 33
2019-06-03 14:00:00 29.3 7 Nordeste 17 Norte 0 -- -- 37
2019-06-03 13:00:00 28.7 10 Norte 16 Norte 0 -- -- 37
2019-06-03 12:00:00 -- -- -- -- -- -- -- -- --
2019-06-03 11:00:00 -- -- -- -- -- -- -- -- --
2019-06-03 10:00:00 -- -- -- -- -- -- -- -- --
2019-06-03 09:00:00 -- -- -- -- -- -- -- -- --
2019-06-03 08:00:00 -- -- -- -- -- -- -- -- --
2019-06-03 07:00:00 -- -- -- -- -- -- -- -- --
2019-06-03 06:00:00 -- -- -- -- -- -- -- -- --
2019-06-03 05:00:00 -- -- -- -- -- -- -- -- --
2019-06-03 04:00:00 -- -- -- -- -- -- -- -- --
2019-06-03 03:00:00 -- -- -- -- -- -- -- -- --
2019-06-03 02:00:00 -- -- -- -- -- -- -- -- --
2019-06-03 01:00:00 -- -- -- -- -- -- -- -- --
2019-06-03 00:00:00 -- -- -- -- -- -- -- -- --
2019-06-02 23:00:00 -- -- -- -- -- -- -- -- --
2019-06-02 22:00:00 -- -- -- -- -- -- -- -- --
2019-06-02 21:00:00 -- -- -- -- -- -- -- -- --
2019-06-02 20:00:00 -- -- -- -- -- -- -- -- --
2019-06-02 19:00:00 -- -- -- -- -- -- -- -- --
2019-06-02 18:00:00 -- -- -- -- -- -- -- -- --
2019-06-02 17:00:00 -- -- -- -- -- -- -- -- --
2019-06-02 16:00:00 -- -- -- -- -- -- -- -- --
2019-06-02 15:00:00 -- -- -- -- -- -- -- -- --
2019-06-02 14:00:00 -- -- -- -- -- -- -- -- --
2019-06-02 13:00:00 -- -- -- -- -- -- -- -- --
2019-06-02 12:00:00 -- -- -- -- -- -- -- -- --
2019-06-02 11:00:00 -- -- -- -- -- -- -- -- --
2019-06-02 10:00:00 -- -- -- -- -- -- -- -- --
2019-06-02 09:00:00 -- -- -- -- -- -- -- -- --
2019-06-02 08:00:00 -- -- -- -- -- -- -- -- --
2019-06-02 07:00:00 12.6 4 Sudeste 5 Sudoeste 0 -- -- 80
2019-06-02 06:00:00 13.3 0 Calma 2 Sudeste 0 -- -- 76
2019-06-02 05:00:00 14.2 0 Calma 4 Sur 0 -- -- 72
2019-06-02 04:00:00 14.8 0 Calma 5 Sudeste 0 -- -- 68
2019-06-02 03:00:00 15.7 0 Calma 5 Norte 0 -- -- 66
2019-06-02 02:00:00 17.2 2 Noroeste 11 Sur 0 -- -- 60
2019-06-02 01:00:00 17.1 3 Sur 6 Sur 0 -- -- 60
2019-06-02 00:00:00 18.2 3 Sudeste 6 Sudeste 0 -- -- 54
2019-06-01 23:00:00 19.7 5 Sudeste 15 Sur 0 -- -- 49
2019-06-01 22:00:00 21.2 14 Sur 24 Sur 0 -- -- 43
2019-06-01 21:00:00 23.4 13 Sur 25 Sur 0 -- -- 41
2019-06-01 20:00:00 26.3 17 Sur 28 Sudeste 0 -- -- 38
2019-06-01 19:00:00 28.9 15 Sudeste 27 Sur 0 -- -- 35
2019-06-01 18:00:00 30.3 15 Sur 26 Sudeste 0 -- -- 35
2019-06-01 17:00:00 31.4 4 Noroeste 14 Oeste 0 -- -- 34
2019-06-01 16:00:00 30.3 4 Noroeste 13 Noroeste 0 -- -- 33
2019-06-01 15:00:00 29.6 8 Nordeste 13 Norte 0 -- -- 33
2019-06-01 14:00:00 28.8 6 Norte 12 Norte 0 -- -- 35
2019-06-01 13:00:00 28.1 3 Noroeste 13 Norte 0 -- -- 34
2019-06-01 12:00:00 26.4 5 Norte 10 Norte 0 -- -- 38
2019-06-01 11:00:00 24.6 5 Norte 8 Nordeste 0 -- -- 45
2019-06-01 10:00:00 22 4 Nordeste 8 Nordeste 0 -- -- 55
2019-06-01 09:00:00 19.3 3 Nordeste 8 Nordeste 0 -- -- 63
2019-06-01 08:00:00 15.9 3 Sur 8 Sudeste 0 -- -- 73
2019-06-01 07:00:00 12.3 5 Sudeste 7 Sudeste 0 -- -- 85
2019-06-01 06:00:00 12.5 5 Sudeste 8 Este 0 -- -- 84
2019-06-01 05:00:00 13.5 0 Calma 5 Sur 0 -- -- 79
2019-06-01 04:00:00 13.8 4 Sudeste 5 Sudeste 0 -- -- 79
2019-06-01 03:00:00 14.4 2 Este 5 Oeste 0 -- -- 78
2019-06-01 02:00:00 15.6 0 Calma 5 Noroeste 0 -- -- 72
2019-06-01 01:00:00 16.4 3 Sur 8 Sudeste 0 -- -- 67
2019-06-01 00:00:00 17 5 Sur 8 Sur 0 -- -- 66
2019-05-31 23:00:00 18.4 3 Oeste 14 Sur 0 -- -- 61
2019-05-31 22:00:00 20.1 10 Sur 21 Sur 0 -- -- 53
2019-05-31 21:00:00 22.3 15 Sudeste 27 Sudeste 0 -- -- 48
2019-05-31 20:00:00 24.6 21 Sudeste 32 Sudeste 0 -- -- 43
2019-05-31 19:00:00 26.5 19 Sudeste 31 Sudeste 0 -- -- 41
2019-05-31 18:00:00 28 15 Sudeste 23 Sudeste 0 -- -- 39
2019-05-31 17:00:00 29 4 Oeste 12 Noroeste 0 -- -- 36
2019-05-31 16:00:00 28.3 4 Nordeste 13 Norte 0 -- -- 37
2019-05-31 15:00:00 27.9 5 Noroeste 13 Oeste 0 -- -- 37
2019-05-31 14:00:00 26.7 3 Noroeste 13 Noroeste 0 -- -- 39
2019-05-31 13:00:00 25.6 6 Norte 11 Noroeste 0 -- -- 44
2019-05-31 12:00:00 24.4 4 Norte 10 Noroeste 0 -- -- 41
2019-05-31 11:00:00 22.6 3 Noroeste 8 Norte 0 -- -- 48
2019-05-31 10:00:00 20.3 3 Norte 7 Noroeste 0 -- -- 52
2019-05-31 09:00:00 17.9 4 Este 8 Este 0 -- -- 60
2019-05-31 08:00:00 14.3 2 Este 6 Sudeste 0 -- -- 74
2019-05-31 07:00:00 10.7 2 Sudeste 6 Sudeste 0 -- -- 86
2019-05-31 06:00:00 11.1 4 Sudeste 7 Sudeste 0 -- -- 84
2019-05-31 05:00:00 11.8 5 Sudeste 7 Sudeste 0 -- -- 82
2019-05-31 04:00:00 12.3 4 Sudeste 6 Sudeste 0 -- -- 79
2019-05-31 03:00:00 13 0 Calma 4 Nordeste 0 -- -- 79
2019-05-31 02:00:00 14 0 Calma 4 Nordeste 0 -- -- 75
2019-05-31 01:00:00 15.4 0 Calma 9 Este 0 -- -- 70
2019-05-31 00:00:00 16.9 3 Nordeste 27 Sudeste 0 -- -- 65
2019-05-30 23:00:00 18.1 17 Sur 27 Sudeste 0 -- -- 58
2019-05-30 22:00:00 19.1 16 Sudeste 28 Sudeste 0 -- -- 57
2019-05-30 21:00:00 21.6 15 Sudeste 27 Sudeste 0 -- -- 51
2019-05-30 20:00:00 27.1 6 Sudeste 18 Sudeste 0 -- -- 42
2019-05-30 19:00:00 28.2 4 Noroeste 12 Oeste 0 -- -- 33
2019-05-30 18:00:00 27.6 8 Oeste 15 Noroeste 0 -- -- 36
2019-05-30 17:00:00 27 5 Sudoeste 18 Sudoeste 0 -- -- 37
2019-05-30 16:00:00 25.9 7 Oeste 23 Oeste 0 -- -- 37
2019-05-30 15:00:00 24.9 7 Oeste 23 Oeste 0 -- -- 39
2019-05-30 14:00:00 23.4 8 Oeste 19 Oeste 0 -- -- 42
2019-05-30 13:00:00 21.8 10 Oeste 19 Sudoeste 0 -- -- 53
2019-05-30 12:00:00 20.1 8 Oeste 18 Oeste 0 -- -- 53
2019-05-30 11:00:00 18.6 8 Oeste 16 Sudoeste 0 -- -- 57
2019-05-30 10:00:00 16.5 6 Oeste 14 Oeste 0 -- -- 62
2019-05-30 09:00:00 14.7 8 Oeste 13 Oeste 0 -- -- 66
2019-05-30 08:00:00 13.1 2 Oeste 4 Sudoeste 0 -- -- 77
2019-05-30 07:00:00 9.6 0 Calma 5 Sudoeste 0 -- -- 86
2019-05-30 06:00:00 10.2 3 Sudoeste 6 Oeste 0 -- -- 83
2019-05-30 05:00:00 11.3 3 Sudoeste 9 Sudoeste 0 -- -- 81
2019-05-30 04:00:00 11.5 3 Sudoeste 8 Sudoeste 0 -- -- 83
2019-05-30 03:00:00 11.7 4 Sur 6 Sur 0 -- -- 86
2019-05-30 02:00:00 12.9 0 Calma 6 Este 0 -- -- 83
2019-05-30 01:00:00 14.2 3 Sur 11 Sur 0 -- -- 79
2019-05-30 00:00:00 15.7 10 Sur 16 Sudoeste 0 -- -- 72
2019-05-29 23:00:00 17.8 4 Sur 19 Oeste 0 -- -- 55
2019-05-29 22:00:00 19.6 10 Oeste 20 Oeste 0 -- -- 50
2019-05-29 21:00:00 21.5 7 Oeste 21 Oeste 0 -- -- 44
2019-05-29 20:00:00 24.6 7 Oeste 25 Oeste 0 -- -- 31
2019-05-29 19:00:00 25.2 15 Oeste 25 Oeste 0 -- -- 28
2019-05-29 18:00:00 25.4 12 Oeste 24 Oeste 0 -- -- 28
2019-05-29 17:00:00 24.4 17 Oeste 30 Sudoeste 0 -- -- 29
2019-05-29 16:00:00 23.9 14 Oeste 31 Oeste 0 -- -- 32
2019-05-29 15:00:00 23.1 15 Oeste 30 Oeste 0 -- -- 33
2019-05-29 14:00:00 21.8 20 Oeste 36 Oeste 0 -- -- 39
2019-05-29 13:00:00 20.9 15 Oeste 30 Oeste 0 -- -- 41
2019-05-29 12:00:00 19.1 15 Oeste 28 Oeste 0 -- -- 49
2019-05-29 11:00:00 16.9 13 Oeste 28 Oeste 0 -- -- 55
2019-05-29 10:00:00 14.5 17 Oeste 29 Oeste 0 -- -- 65
2019-05-29 09:00:00 12.8 13 Oeste 27 Oeste 0 -- -- 69
2019-05-29 08:00:00 11.1 9 Oeste 19 Oeste 0 -- -- 76
2019-05-29 07:00:00 9.2 10 Oeste 18 Oeste 0 -- -- 82
2019-05-29 06:00:00 9.2 10 Sudoeste 18 Sudoeste 0 -- -- 80
2019-05-29 05:00:00 9.7 10 Sudoeste 21 Oeste 0 -- -- 79
2019-05-29 04:00:00 10.4 9 Sudoeste 20 Oeste 0 -- -- 76
2019-05-29 03:00:00 11.1 14 Oeste 23 Sudoeste 0 -- -- 73
2019-05-29 02:00:00 11.4 9 Sudoeste 21 Oeste 0 -- -- 69
2019-05-29 01:00:00 12.5 8 Sudoeste 24 Oeste 0 -- -- 64
2019-05-29 00:00:00 13.8 18 Oeste 37 Oeste 0 -- -- 58
2019-05-28 23:00:00 15.1 24 Oeste 40 Oeste 0 -- -- 53
2019-05-28 22:00:00 16.1 21 Oeste 37 Oeste 0 -- -- 50
2019-05-28 21:00:00 17.8 22 Oeste 45 Oeste 0 -- -- 44
2019-05-28 20:00:00 20.2 24 Oeste 43 Oeste 0 -- -- 43
2019-05-28 19:00:00 22.9 23 Oeste 42 Oeste 0 -- -- 39
2019-05-28 18:00:00 23.4 23 Oeste 40 Oeste 0 -- -- 39
2019-05-28 17:00:00 23.9 21 Oeste 38 Sudoeste 0 -- -- 38
2019-05-28 16:00:00 24 19 Oeste 38 Oeste 0 -- -- 40
2019-05-28 15:00:00 23 18 Oeste 40 Oeste 0 -- -- 45
2019-05-28 14:00:00 21.5 21 Oeste 38 Oeste 0 -- -- 46
2019-05-28 13:00:00 20.3 19 Oeste 37 Oeste 0 -- -- 50
2019-05-28 12:00:00 18.7 17 Oeste 33 Oeste 0 -- -- 52
2019-05-28 11:00:00 16.9 15 Oeste 28 Oeste 0 -- -- 58
2019-05-28 10:00:00 15.5 18 Oeste 31 Oeste 0 -- -- 60
2019-05-28 09:00:00 13.9 16 Oeste 32 Oeste 0 -- -- 64
2019-05-28 08:00:00 12.8 10 Sudoeste 24 Oeste 0 -- -- 69
2019-05-28 07:00:00 11.6 7 Oeste 20 Sudoeste 0 -- -- 73
2019-05-28 06:00:00 12.2 11 Sudoeste 28 Sudoeste 0 -- -- 72
2019-05-28 05:00:00 13.2 13 Oeste 24 Sudoeste 0 -- -- 71
2019-05-28 04:00:00 13.6 10 Sudoeste 27 Sudoeste 0 -- -- 67
2019-05-28 03:00:00 14.4 12 Sudoeste 29 Sudoeste 0 -- -- 68
2019-05-28 02:00:00 15.4 16 Oeste 35 Oeste 0 -- -- 66
2019-05-28 01:00:00 16.6 14 Sudoeste 29 Oeste 0 -- -- 68
2019-05-28 00:00:00 18.2 15 Oeste 27 Oeste 0 -- -- 64
2019-05-27 23:00:00 19 15 Oeste 27 Oeste 0 -- -- 62
2019-05-27 22:00:00 20.9 13 Oeste 26 Oeste 0 -- -- 57
2019-05-27 21:00:00 23.1 11 Oeste 24 Oeste 0 -- -- 54
2019-05-27 20:00:00 24.3 6 Oeste 21 Oeste 0 -- -- 53
2019-05-27 19:00:00 25.6 10 Oeste 25 Oeste 0 -- -- 45
2019-05-27 18:00:00 25.6 13 Oeste 31 Oeste 0 -- -- 47
2019-05-27 17:00:00 24.8 15 Oeste 26 Oeste 0 -- -- 48
2019-05-27 16:00:00 23.9 13 Oeste 29 Oeste 0 -- -- 51
2019-05-27 15:00:00 22.6 13 Oeste 27 Oeste 0 -- -- 53
2019-05-27 14:00:00 21.9 15 Oeste 30 Oeste 0 -- -- 53
2019-05-27 13:00:00 19.7 15 Oeste 31 Oeste 0 -- -- 63
2019-05-27 12:00:00 18.9 16 Oeste 29 Oeste 0 -- -- 66
2019-05-27 11:00:00 17.5 13 Oeste 24 Oeste 0 -- -- 66
2019-05-27 10:00:00 16 13 Oeste 28 Oeste 0 -- -- 71
2019-05-27 09:00:00 14.7 12 Oeste 23 Oeste 0 -- -- 76
2019-05-27 08:00:00 13.2 10 Sudoeste 17 Oeste 0 -- -- 83
2019-05-27 07:00:00 11.3 5 Sudoeste 11 Sudoeste 0 -- -- 87
2019-05-27 06:00:00 11.6 5 Sudoeste 14 Sudoeste 0 -- -- 84
2019-05-27 05:00:00 12.3 8 Oeste 18 Oeste 0 -- -- 81
2019-05-27 04:00:00 13 11 Sudoeste 23 Oeste 0 -- -- 79
2019-05-27 03:00:00 13.7 12 Sudoeste 24 Sudoeste 0 -- -- 78
2019-05-27 02:00:00 14.7 14 Sudoeste 28 Sudoeste 0 -- -- 74
2019-05-27 01:00:00 15.9 15 Sudoeste 29 Sudoeste 0 -- -- 71
2019-05-27 00:00:00 17.2 11 Oeste 22 Oeste 0 -- -- 67
2019-05-26 23:00:00 18.6 13 Oeste 31 Oeste 0 -- -- 62
2019-05-26 22:00:00 19.8 11 Oeste 18 Oeste 0 -- -- 61
2019-05-26 21:00:00 21.8 3 Sudoeste 9 Oeste 0 -- -- 55
2019-05-26 20:00:00 24.6 5 Noroeste 19 Oeste 0 -- -- 45
2019-05-26 19:00:00 24.5 6 Oeste 24 Oeste 0 -- -- 46
2019-05-26 18:00:00 24.4 9 Oeste 24 Oeste 0 -- -- 46
2019-05-26 17:00:00 24.4 13 Oeste 27 Oeste 0 -- -- 44
2019-05-26 16:00:00 24.2 12 Oeste 29 Oeste 0 -- -- 46
2019-05-26 15:00:00 23.3 15 Oeste 27 Oeste 0 -- -- 47
2019-05-26 14:00:00 21.7 12 Oeste 29 Oeste 0 -- -- 54
2019-05-26 13:00:00 20 12 Oeste 28 Oeste 0 -- -- 64
2019-05-26 12:00:00 18.2 11 Oeste 25 Oeste 0 -- -- 65
2019-05-26 11:00:00 16.4 13 Oeste 26 Oeste 0 -- -- 69
2019-05-26 10:00:00 15.1 10 Oeste 26 Oeste 0 -- -- 73
2019-05-26 09:00:00 13.6 14 Oeste 25 Oeste 0 -- -- 77
2019-05-26 08:00:00 12.6 10 Sudoeste 22 Sudoeste 0 -- -- 80
2019-05-26 07:00:00 10.8 7 Sudoeste 19 Sudoeste 0 -- -- 87
2019-05-26 06:00:00 11.1 9 Sudoeste 22 Sudoeste 0 -- -- 86
2019-05-26 05:00:00 11.4 10 Sudoeste 25 Sudoeste 0 -- -- 85
2019-05-26 04:00:00 12.1 15 Sudoeste 28 Sudoeste 0 -- -- 82
2019-05-26 03:00:00 13 17 Sudoeste 32 Sudoeste 0 -- -- 80
2019-05-26 02:00:00 13.6 19 Sudoeste 31 Sudoeste 0 -- -- 80
2019-05-26 01:00:00 14.8 10 Sudoeste 26 Sudoeste 0 -- -- 78
2019-05-26 00:00:00 16.1 13 Sudoeste 28 Sudoeste 0 -- -- 76
2019-05-25 23:00:00 17 12 Oeste 20 Sudoeste 0 -- -- 75
2019-05-25 22:00:00 18.1 6 Sudoeste 15 Oeste 0 -- -- 70
2019-05-25 21:00:00 19.1 10 Oeste 18 Oeste 0 -- -- 71
2019-05-25 20:00:00 21.4 11 Oeste 20 Oeste 0 -- -- 61
2019-05-25 19:00:00 24.4 5 Oeste 12 Oeste 0 -- -- 50
2019-05-25 18:00:00 21.4 3 Oeste 16 Noroeste 0 -- -- 61
2019-05-25 17:00:00 22.9 7 Noroeste 16 Noroeste 0 -- -- 57
2019-05-25 16:00:00 23.6 8 Oeste 18 Noroeste 0 -- -- 53
2019-05-25 15:00:00 21.9 7 Oeste 17 Oeste 0 -- -- 60
2019-05-25 14:00:00 21 12 Oeste 20 Oeste 0 -- -- 65
2019-05-25 13:00:00 19.4 8 Oeste 22 Oeste 0 -- -- 72
2019-05-25 12:00:00 18 10 Oeste 21 Oeste 0 -- -- 76
2019-05-25 11:00:00 16.4 10 Oeste 18 Oeste 0 -- -- 82
2019-05-25 10:00:00 14.5 11 Oeste 24 Sudoeste 0 -- -- 84
2019-05-25 09:00:00 14.2 14 Oeste 24 Oeste 0 -- -- 84
2019-05-25 08:00:00 13.3 8 Sudoeste 15 Sudoeste 0 -- -- 92
2019-05-25 07:00:00 12.6 6 Sudoeste 17 Sudoeste 0 -- -- 93
2019-05-25 06:00:00 12.9 9 Sudoeste 16 Oeste 0 -- -- 94
2019-05-25 05:00:00 13.4 9 Sudoeste 15 Sudoeste 0 -- -- 96
2019-05-25 04:00:00 13.8 6 Sudoeste 11 Oeste 0 -- -- 97
2019-05-25 03:00:00 13.7 3 Sudoeste 6 Oeste 0 -- -- 96
2019-05-25 02:00:00 13.9 3 Oeste 5 Oeste 0 -- -- 95
2019-05-25 01:00:00 14.4 0 Calma 4 Oeste 0.2 -- -- 95
2019-05-25 00:00:00 14.6 0 Calma 7 Sudeste 0 -- -- 93
2019-05-24 23:00:00 14.8 3 Sudeste 7 Nordeste 0 -- -- 93
2019-05-24 22:00:00 15 3 Nordeste 9 Nordeste 0 -- -- 92
2019-05-24 21:00:00 15.5 4 Norte 9 Norte 0.2 -- -- 92
2019-05-24 20:00:00 15.7 3 Nordeste 17 Este 0 -- -- 90
2019-05-24 19:00:00 15.8 11 Este 23 Este 0 -- -- 86
2019-05-24 18:00:00 15.5 11 Nordeste 21 Nordeste 0.2 -- -- 88
2019-05-24 17:00:00 15.4 3 Norte 10 Oeste 1.2 -- -- 94
2019-05-24 16:00:00 15.4 6 Oeste 12 Oeste 0.6 -- -- 96
2019-05-24 15:00:00 14.7 10 Oeste 19 Oeste 5.6 -- -- 97
2019-05-24 14:00:00 14.5 10 Oeste 21 Sudoeste 9 -- -- 96
2019-05-24 13:00:00 15.5 4 Oeste 11 Oeste 0.8 -- -- 96
2019-05-24 12:00:00 15.1 5 Oeste 18 Oeste 1.4 -- -- 97
2019-05-24 11:00:00 15.6 9 Oeste 17 Oeste 2 -- -- 95
2019-05-24 10:00:00 15.6 2 Norte 8 Norte 4 -- -- 95
2019-05-24 09:00:00 15.6 3 Noroeste 7 Noroeste 3.2 -- -- 95
2019-05-24 08:00:00 15.6 4 Noroeste 8 Noroeste 2 -- -- 95
2019-05-24 07:00:00 15.6 4 Noroeste 17 Oeste 2.6 -- -- 94
2019-05-24 06:00:00 15.9 11 Sudoeste 22 Oeste 0 -- -- 92
2019-05-24 05:00:00 16.3 3 Sur 8 Sudeste 0 -- -- 92
2019-05-24 04:00:00 16.2 5 Sudeste 12 Este 0.4 -- -- 92
2019-05-24 03:00:00 16.5 5 Sudoeste 14 Noroeste 1.2 -- -- 90
2019-05-24 02:00:00 17 7 Oeste 16 Sudoeste 2 -- -- 89
2019-05-24 01:00:00 18.1 2 Sudeste 20 Oeste 0 -- -- 81
2019-05-24 00:00:00 19 5 Sur 13 Este 0 -- -- 66
2019-05-23 23:00:00 19.4 3 Nordeste 17 Sur 0 -- -- 68
2019-05-23 22:00:00 20.3 12 Sur 22 Sur 0 -- -- 66
2019-05-23 21:00:00 21.8 13 Sur 21 Sur 0 -- -- 62
2019-05-23 20:00:00 24 13 Sur 25 Sudeste 0 -- -- 56
2019-05-23 19:00:00 26.8 9 Sur 19 Sudeste 0 -- -- 44
2019-05-23 18:00:00 27.4 3 Oeste 10 Oeste 0 -- -- 32
2019-05-23 17:00:00 28 6 Noroeste 17 Oeste 0 -- -- 32
2019-05-23 16:00:00 28.5 8 Noroeste 20 Oeste 0 -- -- 28
2019-05-23 15:00:00 28.5 6 Noroeste 17 Oeste 0 -- -- 29
2019-05-23 14:00:00 27 6 Oeste 19 Oeste 0 -- -- 31
2019-05-23 13:00:00 25.6 5 Oeste 11 Oeste 0 -- -- 39
2019-05-23 12:00:00 24 4 Norte 10 Oeste 0 -- -- 47
2019-05-23 11:00:00 21.9 3 Noroeste 8 Noroeste 0 -- -- 48
2019-05-23 10:00:00 19.4 2 Nordeste 8 Este 0 -- -- 53
2019-05-23 09:00:00 16.3 3 Este 7 Sudeste 0 -- -- 63
2019-05-23 08:00:00 12.7 3 Sur 4 Sudeste 0 -- -- 76
2019-05-23 07:00:00 9.8 4 Sur 5 Sudoeste 0 -- -- 82
2019-05-23 06:00:00 9.9 3 Sur 6 Este 0 -- -- 81
2019-05-23 05:00:00 10.6 2 Este 5 Este 0 -- -- 78
2019-05-23 04:00:00 11.4 2 Sudeste 6 Sudeste 0 -- -- 73
2019-05-23 03:00:00 12.2 3 Sudeste 5 Sudeste 0 -- -- 71
2019-05-23 02:00:00 13 3 Sur 6 Nordeste 0 -- -- 69
2019-05-23 01:00:00 14.8 3 Noroeste 12 Sudeste 0 -- -- 64
2019-05-23 00:00:00 16.2 7 Sur 12 Sur 0 -- -- 58
2019-05-22 23:00:00 17.1 9 Sur 16 Sudeste 0 -- -- 56
2019-05-22 22:00:00 18.7 7 Sur 13 Sudeste 0 -- -- 49
2019-05-22 21:00:00 22 7 Sudeste 14 Sudeste 0 -- -- 42
2019-05-22 20:00:00 26.5 4 Norte 15 Oeste 0 -- -- 27
2019-05-22 19:00:00 27 5 Noroeste 19 Noroeste 0 -- -- 26
2019-05-22 18:00:00 26.8 9 Noroeste 24 Oeste 0 -- -- 25
2019-05-22 17:00:00 26.4 12 Oeste 26 Oeste 0 -- -- 27
2019-05-22 16:00:00 25.4 9 Oeste 23 Oeste 0 -- -- 30
2019-05-22 15:00:00 24.3 10 Oeste 23 Oeste 0 -- -- 32
2019-05-22 14:00:00 23 8 Oeste 18 Oeste 0 -- -- 42
2019-05-22 13:00:00 21.8 6 Oeste 18 Oeste 0 -- -- 48
2019-05-22 12:00:00 20.4 6 Oeste 19 Oeste 0 -- -- 54
2019-05-22 11:00:00 18.8 6 Oeste 17 Oeste 0 -- -- 58
2019-05-22 10:00:00 16.7 7 Oeste 14 Oeste 0 -- -- 64
2019-05-22 09:00:00 14.7 7 Oeste 12 Oeste 0 -- -- 73
2019-05-22 08:00:00 12.9 5 Sudoeste 10 Sudoeste 0 -- -- 79
2019-05-22 07:00:00 9.5 4 Sudoeste 6 Oeste 0 -- -- 91
2019-05-22 06:00:00 9.9 3 Sudeste 6 Sur 0 -- -- 89
2019-05-22 05:00:00 10.6 4 Sur 6 Sur 0 -- -- 89
2019-05-22 04:00:00 11.2 0 Calma 5 Sur 0 -- -- 86
2019-05-22 03:00:00 11.9 4 Sur 6 Sur 0 -- -- 83
2019-05-22 02:00:00 12.9 3 Sudeste 8 Este 0 -- -- 79
2019-05-22 01:00:00 14 5 Nordeste 12 Nordeste 0 -- -- 73
2019-05-22 00:00:00 15.6 3 Este 16 Nordeste 0 -- -- 66
2019-05-21 23:00:00 16.6 6 Nordeste 21 Sur 0 -- -- 67
2019-05-21 22:00:00 17.8 15 Sur 27 Sur 0 -- -- 60
2019-05-21 21:00:00 20.3 10 Sudeste 21 Sudeste 0 -- -- 51
2019-05-21 20:00:00 25.2 3 Norte 14 Noroeste 0 -- -- 28
2019-05-21 19:00:00 25.8 4 Noroeste 16 Noroeste 0 -- -- 30
2019-05-21 18:00:00 25.6 5 Noroeste 17 Noroeste 0 -- -- 30
2019-05-21 17:00:00 24.9 6 Sudoeste 20 Oeste 0 -- -- 34
2019-05-21 16:00:00 24.6 6 Noroeste 27 Oeste 0 -- -- 35
2019-05-21 15:00:00 23.7 10 Oeste 25 Oeste 0 -- -- 39
2019-05-21 14:00:00 22.3 9 Oeste 21 Oeste 0 -- -- 41
2019-05-21 13:00:00 20.5 8 Oeste 22 Oeste 0 -- -- 51
2019-05-21 12:00:00 18.7 10 Oeste 22 Oeste 0 -- -- 55
2019-05-21 11:00:00 16.9 9 Oeste 20 Noroeste 0 -- -- 62
2019-05-21 10:00:00 14.8 9 Oeste 22 Sudoeste 0 -- -- 71
2019-05-21 09:00:00 12.8 11 Oeste 19 Oeste 0 -- -- 76
2019-05-21 08:00:00 10.8 5 Oeste 11 Sudoeste 0 -- -- 80
2019-05-21 07:00:00 7.3 5 Sur 6 Sur 0 -- -- 89
2019-05-21 06:00:00 8 0 Calma 6 Norte 0 -- -- 87
2019-05-21 05:00:00 8.3 4 Sur 7 Sur 0 -- -- 88
2019-05-21 04:00:00 8.4 3 Sur 5 Sur 0 -- -- 85
2019-05-21 03:00:00 9.4 4 Sudeste 6 Sudeste 0 -- -- 83
2019-05-21 02:00:00 10.6 3 Sudeste 8 Sudeste 0 -- -- 78
2019-05-21 01:00:00 12.3 4 Este 13 Este 0 -- -- 73
2019-05-21 00:00:00 13.5 8 Este 17 Nordeste 0 -- -- 67